createdAt,value
2022-12-17T00:01:20.725Z,-0.28
2022-12-17T00:04:07.465Z,-0.30
2022-12-17T00:06:53.771Z,-0.29
2022-12-17T00:09:48.608Z,-0.30
2022-12-17T00:12:36.373Z,-0.31
2022-12-17T00:15:22.856Z,-0.31
2022-12-17T00:18:09.360Z,-0.31
2022-12-17T00:20:56.219Z,-0.32
2022-12-17T00:23:42.840Z,-0.30
2022-12-17T00:26:29.071Z,-0.32
2022-12-17T00:29:15.382Z,-0.33
2022-12-17T00:32:02.049Z,-0.37
2022-12-17T00:34:48.301Z,-0.37
2022-12-17T00:37:34.585Z,-0.38
2022-12-17T00:40:21.227Z,-0.40
2022-12-17T00:43:07.624Z,-0.41
2022-12-17T00:45:53.933Z,-0.42
2022-12-17T00:48:40.462Z,-0.43
2022-12-17T00:51:27.143Z,-0.41
2022-12-17T00:54:13.698Z,-0.40
2022-12-17T00:57:00.389Z,-0.40
2022-12-17T00:59:47.074Z,-0.43
2022-12-17T01:02:33.449Z,-0.47
2022-12-17T01:05:19.780Z,-0.50
2022-12-17T01:08:06.336Z,-0.55
2022-12-17T01:10:52.805Z,-0.56
2022-12-17T01:13:39.522Z,-0.58
2022-12-17T01:16:27.878Z,-0.62
2022-12-17T01:19:14.747Z,-0.69
2022-12-17T01:22:01.511Z,-0.73
2022-12-17T01:24:47.784Z,-0.75
2022-12-17T01:27:34.065Z,-0.78
2022-12-17T01:30:22.176Z,-0.82
2022-12-17T01:33:08.908Z,-0.89
2022-12-17T01:35:55.076Z,-0.93
2022-12-17T01:38:43.036Z,-0.94
2022-12-17T01:41:29.595Z,-0.97
2022-12-17T01:44:15.828Z,-0.99
2022-12-17T01:47:07.014Z,-1.08
2022-12-17T01:49:53.279Z,-1.13
2022-12-17T01:52:39.563Z,-1.20
2022-12-17T01:55:26.229Z,-1.25
2022-12-17T01:58:12.349Z,-1.30
2022-12-17T02:00:59.097Z,-1.36
2022-12-17T02:03:45.370Z,-1.40
2022-12-17T02:06:43.220Z,-1.41
2022-12-17T02:09:40.723Z,-1.45
2022-12-17T02:12:27.052Z,-1.49
2022-12-17T02:15:17.542Z,-1.52
2022-12-17T02:18:11.143Z,-1.51
2022-12-17T02:21:12.772Z,-1.56
2022-12-17T02:24:22.305Z,-1.61
2022-12-17T02:27:11.369Z,-1.62
2022-12-17T02:30:06.670Z,-1.59
2022-12-17T02:32:53.365Z,-1.60
2022-12-17T02:35:43.795Z,-1.63
2022-12-17T02:38:56.799Z,-1.66
2022-12-17T02:41:48.772Z,-1.70
2022-12-17T02:44:37.492Z,-1.73
2022-12-17T02:47:25.365Z,-1.73
2022-12-17T02:50:11.629Z,-1.76
2022-12-17T02:53:00.012Z,-1.79
2022-12-17T02:55:46.202Z,-1.84
2022-12-17T02:58:32.651Z,-1.87
2022-12-17T03:01:19.042Z,-1.90
2022-12-17T03:04:05.402Z,-1.90
2022-12-17T03:06:52.103Z,-1.95
2022-12-17T03:09:38.481Z,-2.03
2022-12-17T03:12:24.808Z,-2.04
2022-12-17T03:15:11.158Z,-2.04
2022-12-17T03:17:57.350Z,-2.03
2022-12-17T03:20:43.883Z,-2.09
2022-12-17T03:23:30.272Z,-2.11
2022-12-17T03:26:21.139Z,-2.16
2022-12-17T03:29:07.516Z,-2.21
2022-12-17T03:31:53.871Z,-2.28
2022-12-17T03:34:40.186Z,-2.33
2022-12-17T03:37:26.704Z,-2.42
2022-12-17T03:40:13.094Z,-2.39
2022-12-17T03:42:59.191Z,-2.41
2022-12-17T03:45:45.748Z,-2.43
2022-12-17T03:48:33.115Z,-2.45
2022-12-17T03:51:19.349Z,-2.53
2022-12-17T03:54:05.741Z,-2.60
2022-12-17T03:56:52.247Z,-2.65
2022-12-17T03:59:38.558Z,-2.73
2022-12-17T04:02:24.935Z,-2.72
2022-12-17T04:05:16.589Z,-2.73
2022-12-17T04:08:06.409Z,-2.71
2022-12-17T04:10:52.778Z,-2.73
2022-12-17T04:13:41.380Z,-2.77
2022-12-17T04:16:28.658Z,-2.84
2022-12-17T04:19:15.255Z,-2.92
2022-12-17T04:22:01.712Z,-3.06
2022-12-17T04:24:48.158Z,-3.12
2022-12-17T04:27:34.455Z,-3.17
2022-12-17T04:30:20.664Z,-3.15
2022-12-17T04:33:07.055Z,-3.12
2022-12-17T04:35:53.363Z,-3.11
2022-12-17T04:38:39.805Z,-3.08
2022-12-17T04:41:26.114Z,-3.11
2022-12-17T04:44:12.274Z,-3.18
2022-12-17T04:46:58.826Z,-3.29
2022-12-17T04:49:45.173Z,-3.37
2022-12-17T04:52:31.355Z,-3.36
2022-12-17T04:55:18.021Z,-3.33
2022-12-17T04:58:04.213Z,-3.29
2022-12-17T05:00:50.625Z,-3.30
2022-12-17T05:03:37.345Z,-3.32
2022-12-17T05:06:24.027Z,-3.39
2022-12-17T05:09:10.468Z,-3.35
2022-12-17T05:11:56.868Z,-3.40
2022-12-17T05:14:43.531Z,-3.43
2022-12-17T05:17:29.852Z,-3.48
2022-12-17T05:20:16.450Z,-3.52
2022-12-17T05:23:02.701Z,-3.53
2022-12-17T05:25:48.962Z,-3.47
2022-12-17T05:28:35.360Z,-3.46
2022-12-17T05:31:21.753Z,-3.45
2022-12-17T05:34:08.067Z,-3.43
2022-12-17T05:36:54.583Z,-3.46
2022-12-17T05:39:41.071Z,-3.48
2022-12-17T05:42:27.284Z,-3.48
2022-12-17T05:45:13.499Z,-3.55
2022-12-17T05:47:59.675Z,-3.58
2022-12-17T05:50:46.353Z,-3.59
2022-12-17T05:53:32.663Z,-3.59
2022-12-17T05:56:19.235Z,-3.59
2022-12-17T05:59:05.870Z,-3.64
2022-12-17T06:01:52.563Z,-3.67
2022-12-17T06:04:38.754Z,-3.67
2022-12-17T06:07:25.032Z,-3.68
2022-12-17T06:10:11.633Z,-3.71
2022-12-17T06:12:57.920Z,-3.70
2022-12-17T06:15:44.596Z,-3.69
2022-12-17T06:18:31.065Z,-3.71
2022-12-17T06:21:17.582Z,-3.74
2022-12-17T06:24:04.368Z,-3.76
2022-12-17T06:26:50.598Z,-3.80
2022-12-17T06:29:37.176Z,-3.78
2022-12-17T06:32:23.762Z,-3.81
2022-12-17T06:35:09.989Z,-3.81
2022-12-17T06:37:56.333Z,-3.83
2022-12-17T06:40:42.705Z,-3.81
2022-12-17T06:43:29.177Z,-3.78
2022-12-17T06:46:15.939Z,-3.81
2022-12-17T06:49:02.515Z,-3.83
2022-12-17T06:51:49.003Z,-3.83
2022-12-17T06:54:35.447Z,-3.81
2022-12-17T06:57:21.798Z,-3.86
2022-12-17T07:00:08.001Z,-3.91
2022-12-17T07:02:54.690Z,-3.98
2022-12-17T07:05:41.165Z,-3.99
2022-12-17T07:08:27.592Z,-4.03
2022-12-17T07:11:14.020Z,-4.07
2022-12-17T07:14:00.573Z,-4.07
2022-12-17T07:16:46.948Z,-4.08
2022-12-17T07:19:33.134Z,-4.12
2022-12-17T07:22:19.917Z,-4.14
2022-12-17T07:25:06.080Z,-4.14
2022-12-17T07:27:52.419Z,-4.19
2022-12-17T07:30:38.911Z,-4.20
2022-12-17T07:33:26.162Z,-4.13
2022-12-17T07:36:13.260Z,-4.11
2022-12-17T07:39:00.173Z,-4.18
2022-12-17T07:41:46.459Z,-4.22
2022-12-17T07:44:33.103Z,-4.25
2022-12-17T07:47:19.440Z,-4.14
2022-12-17T07:50:05.682Z,-4.09
2022-12-17T07:53:02.539Z,-4.00
2022-12-17T07:55:49.057Z,-3.93
2022-12-17T07:58:35.293Z,-3.87
2022-12-17T08:01:21.676Z,-3.83
2022-12-17T08:04:12.435Z,-3.74
2022-12-17T08:07:04.133Z,-3.64
2022-12-17T08:09:53.659Z,-3.57
2022-12-17T08:12:39.919Z,-3.22
2022-12-17T08:15:26.740Z,-2.91
2022-12-17T08:18:24.359Z,-2.67
2022-12-17T08:21:12.583Z,-2.46
2022-12-17T08:23:58.907Z,-2.38
2022-12-17T08:26:48.065Z,-2.42
2022-12-17T08:29:34.668Z,-2.51
2022-12-17T08:32:20.926Z,-2.65
2022-12-17T08:35:07.318Z,-2.70
2022-12-17T08:37:53.561Z,-2.77
2022-12-17T08:40:40.074Z,-2.84
2022-12-17T08:43:27.356Z,-2.86
2022-12-17T08:46:27.622Z,-2.83
2022-12-17T08:49:13.947Z,-2.86
2022-12-17T08:52:00.289Z,-2.65
2022-12-17T08:54:46.527Z,-2.55
2022-12-17T08:57:32.812Z,-2.45
2022-12-17T09:00:19.387Z,-2.37
2022-12-17T09:03:05.801Z,-2.31
2022-12-17T09:05:52.108Z,-2.13
2022-12-17T09:08:38.374Z,-2.03
2022-12-17T09:11:24.952Z,-1.97
2022-12-17T09:14:11.127Z,-2.01
2022-12-17T09:20:44.350Z,-1.97
2022-12-17T09:23:30.678Z,-1.88
2022-12-17T09:26:17.616Z,-1.74
2022-12-17T09:29:03.913Z,-0.86
2022-12-17T09:31:51.324Z,-0.59
2022-12-17T09:34:37.661Z,-0.21
2022-12-17T09:37:23.991Z,-0.12
2022-12-17T09:40:10.243Z,-0.32
2022-12-17T09:43:16.643Z,-0.48
2022-12-17T09:46:06.871Z,-0.62
2022-12-17T09:49:00.510Z,-0.67
2022-12-17T09:51:48.099Z,-0.66
2022-12-17T09:54:41.159Z,-0.61
2022-12-17T09:57:28.997Z,-0.66
2022-12-17T10:00:15.416Z,-0.69
2022-12-17T10:03:02.764Z,-0.65
2022-12-17T10:05:51.015Z,-0.64
2022-12-17T10:08:39.265Z,-0.65
2022-12-17T10:11:44.066Z,-0.69
2022-12-17T10:14:48.384Z,-0.59
2022-12-17T10:17:36.634Z,-0.56
2022-12-17T10:20:23.693Z,-0.62
2022-12-17T10:23:10.493Z,-0.58
2022-12-17T10:25:57.269Z,-0.51
2022-12-17T10:28:44.652Z,-0.42
2022-12-17T10:31:35.494Z,-0.35
2022-12-17T10:34:21.751Z,-0.28
2022-12-17T10:37:09.843Z,-0.28
2022-12-17T10:39:56.241Z,-0.23
2022-12-17T10:42:50.741Z,-0.12
2022-12-17T10:45:59.773Z,-0.12
2022-12-17T10:48:47.586Z,-0.06
2022-12-17T10:51:45.138Z,0.04
2022-12-17T10:54:50.828Z,-0.26
2022-12-17T10:57:52.562Z,-0.08
2022-12-17T11:00:56.370Z,0.12
2022-12-17T11:03:44.066Z,0.12
2022-12-17T11:06:36.164Z,0.18
2022-12-17T11:09:25.290Z,0.16
2022-12-17T11:12:11.786Z,0.37
2022-12-17T11:15:03.345Z,0.54
2022-12-17T11:17:50.448Z,0.62
2022-12-17T11:20:45.488Z,0.55
2022-12-17T11:23:38.815Z,0.55
2022-12-17T11:26:34.116Z,0.56
2022-12-17T11:29:20.591Z,0.49
2022-12-17T11:32:27.693Z,0.47
2022-12-17T11:35:36.247Z,0.64
2022-12-17T11:38:44.828Z,0.95
2022-12-17T11:41:34.244Z,1.06
2022-12-17T11:44:59.367Z,1.40
2022-12-17T11:47:58.998Z,1.69
2022-12-17T11:50:57.898Z,1.96
2022-12-17T11:53:53.543Z,2.14
2022-12-17T11:57:10.116Z,2.29
2022-12-17T12:00:04.115Z,2.38
2022-12-17T12:03:19.176Z,2.65
2022-12-17T12:06:19.102Z,2.56
2022-12-17T12:09:31.645Z,2.53
2022-12-17T12:12:21.492Z,2.62
2022-12-17T12:15:27.741Z,2.73
2022-12-17T12:18:24.830Z,2.93
2022-12-17T12:21:37.103Z,3.01
2022-12-17T12:24:42.494Z,2.84
2022-12-17T12:27:44.248Z,2.97
2022-12-17T12:30:33.688Z,2.95
2022-12-17T12:33:35.221Z,2.74
2022-12-17T12:36:23.140Z,2.66
2022-12-17T12:39:15.812Z,2.72
2022-12-17T12:42:16.740Z,2.85
2022-12-17T12:45:15.541Z,2.81
2022-12-17T12:48:16.893Z,2.67
2022-12-17T12:51:19.396Z,2.61
2022-12-17T12:54:19.547Z,2.43
2022-12-17T12:57:06.108Z,2.36
2022-12-17T12:59:54.052Z,2.28
2022-12-17T13:02:40.667Z,2.09
2022-12-17T13:05:35.857Z,1.79
2022-12-17T13:08:10.140Z,1.57
2022-12-17T13:10:38.643Z,1.45
2022-12-17T13:13:32.042Z,1.42
2022-12-17T13:16:29.594Z,1.47
2022-12-17T13:19:05.650Z,1.43
2022-12-17T13:21:33.645Z,1.45
2022-12-17T13:24:11.988Z,1.38
2022-12-17T13:26:42.700Z,1.33
2022-12-17T13:29:25.567Z,1.33
2022-12-17T13:32:06.546Z,1.28
2022-12-17T13:35:08.454Z,1.23
2022-12-17T13:37:44.094Z,1.22
2022-12-17T13:40:35.437Z,1.21
2022-12-17T13:43:03.685Z,1.13
2022-12-17T13:45:31.751Z,1.14
2022-12-17T13:48:00.157Z,1.14
2022-12-17T13:50:35.171Z,1.09
2022-12-17T13:53:11.820Z,1.05
2022-12-17T13:55:39.856Z,0.97
2022-12-17T13:58:07.999Z,0.90
2022-12-17T14:00:36.358Z,0.79
2022-12-17T14:03:12.090Z,0.80
2022-12-17T14:05:43.769Z,0.83
2022-12-17T14:08:15.534Z,0.76
2022-12-17T14:10:53.208Z,0.74
2022-12-17T14:13:21.329Z,0.73
2022-12-17T14:15:50.544Z,0.64
2022-12-17T14:18:20.418Z,0.63
2022-12-17T14:20:48.456Z,0.57
2022-12-17T14:23:29.391Z,0.46
2022-12-17T14:25:57.375Z,0.48
2022-12-17T14:28:36.670Z,0.48
2022-12-17T14:34:08.605Z,0.37
2022-12-17T14:36:38.100Z,0.37
2022-12-17T14:39:30.133Z,0.37
2022-12-17T14:42:18.532Z,0.28
2022-12-17T14:45:00.920Z,0.18
2022-12-17T14:47:36.011Z,0.07
2022-12-17T14:50:08.766Z,0.04
2022-12-17T14:52:57.451Z,0.00
2022-12-17T14:55:32.048Z,0.00
2022-12-17T14:58:15.409Z,-0.09
2022-12-17T15:00:48.909Z,-0.15
2022-12-17T15:03:22.756Z,-0.21
2022-12-17T15:05:56.699Z,-0.21
2022-12-17T15:08:24.662Z,-0.17
2022-12-17T15:10:52.765Z,-0.22
2022-12-17T15:13:20.793Z,-0.25
2022-12-17T15:15:49.054Z,-0.34
2022-12-17T15:18:16.936Z,-0.32
2022-12-17T15:20:44.936Z,-0.38
2022-12-17T15:23:22.775Z,-0.43
2022-12-17T15:25:52.084Z,-0.54
2022-12-17T15:28:20.736Z,-0.53
2022-12-17T15:30:49.004Z,-0.52
2022-12-17T15:33:17.279Z,-0.47
2022-12-17T15:35:45.370Z,-0.47
2022-12-17T15:38:13.485Z,-0.42
2022-12-17T15:40:41.854Z,-0.43
2022-12-17T15:43:13.014Z,-0.47
2022-12-17T15:45:46.523Z,-0.50
2022-12-17T15:48:16.204Z,-0.50
2022-12-17T15:50:44.425Z,-0.50
2022-12-17T15:53:12.448Z,-0.53
2022-12-17T15:55:40.364Z,-0.61
2022-12-17T15:58:08.669Z,-0.67
2022-12-17T16:00:36.698Z,-0.66
2022-12-17T16:03:04.869Z,-0.67
2022-12-17T16:05:33.008Z,-0.68
2022-12-17T16:08:05.453Z,-0.67
2022-12-17T16:10:33.764Z,-0.75
2022-12-17T16:13:01.783Z,-0.81
2022-12-17T16:15:29.806Z,-0.84
2022-12-17T16:17:58.111Z,-0.84
2022-12-17T16:20:27.757Z,-0.84
2022-12-17T16:22:55.805Z,-0.87
2022-12-17T16:25:24.020Z,-0.87
2022-12-17T16:27:52.517Z,-0.91
2022-12-17T16:30:20.534Z,-0.95
2022-12-17T16:32:48.557Z,-0.97
2022-12-17T16:35:17.206Z,-1.00
2022-12-17T16:37:45.262Z,-0.98
2022-12-17T16:40:13.485Z,-0.99
2022-12-17T16:42:41.563Z,-0.99
2022-12-17T16:45:10.212Z,-0.96
2022-12-17T16:47:38.322Z,-0.96
2022-12-17T16:50:06.630Z,-0.94
2022-12-17T16:52:36.900Z,-0.94
2022-12-17T16:55:05.197Z,-0.94
2022-12-17T16:57:33.149Z,-0.97
2022-12-17T17:00:01.557Z,-1.01
2022-12-17T17:02:29.679Z,-1.02
2022-12-17T17:04:57.764Z,-1.06
2022-12-17T17:07:25.853Z,-1.11
2022-12-17T17:09:53.898Z,-1.13
2022-12-17T17:12:22.204Z,-1.14
2022-12-17T17:14:53.073Z,-1.16
2022-12-17T17:17:54.761Z,-1.20
2022-12-17T17:20:09.252Z,-1.26
2022-12-17T17:22:37.470Z,-1.26
2022-12-17T17:25:06.345Z,-1.26
2022-12-17T17:27:34.410Z,-1.29
2022-12-17T17:30:04.170Z,-1.31
2022-12-17T17:32:32.685Z,-1.35
2022-12-17T17:35:00.803Z,-1.40
2022-12-17T17:37:29.494Z,-1.42
2022-12-17T17:39:57.652Z,-1.44
2022-12-17T17:42:25.695Z,-1.54
2022-12-17T17:44:55.165Z,-1.53
2022-12-17T17:47:23.272Z,-1.52
2022-12-17T17:49:51.285Z,-1.51
2022-12-17T17:52:19.521Z,-1.51
2022-12-17T17:54:48.361Z,-1.51
2022-12-17T17:57:16.294Z,-1.57
2022-12-17T17:59:44.379Z,-1.63
2022-12-17T18:02:12.570Z,-1.64
2022-12-17T18:04:41.345Z,-1.71
2022-12-17T18:07:24.671Z,-1.72
2022-12-17T18:09:53.429Z,-1.67
2022-12-17T18:12:39.893Z,-1.61
2022-12-17T18:15:17.246Z,-1.62
2022-12-17T18:17:46.692Z,-1.60
2022-12-17T18:20:15.329Z,-1.60
2022-12-17T18:22:47.957Z,-1.60
2022-12-17T18:25:17.308Z,-1.57
2022-12-17T18:27:45.771Z,-1.55
2022-12-17T18:30:14.598Z,-1.51
2022-12-17T18:32:42.771Z,-1.50
2022-12-17T18:35:11.145Z,-1.48
2022-12-17T18:37:39.326Z,-1.47
2022-12-17T18:40:07.941Z,-1.47
2022-12-17T18:42:55.071Z,-1.45
2022-12-17T18:45:23.337Z,-1.42
2022-12-17T18:47:52.395Z,-1.41
2022-12-17T18:50:20.477Z,-1.43
2022-12-17T18:52:48.695Z,-1.46
2022-12-17T18:55:17.639Z,-1.47
2022-12-17T18:57:45.716Z,-1.46
2022-12-17T19:00:13.982Z,-1.47
2022-12-17T19:02:42.264Z,-1.52
2022-12-17T19:05:10.630Z,-1.52
2022-12-17T19:07:38.525Z,-1.52
2022-12-17T19:10:07.003Z,-1.51
2022-12-17T19:12:35.184Z,-1.52
2022-12-17T19:15:03.174Z,-1.49
2022-12-17T19:17:31.113Z,-1.45
2022-12-17T19:19:59.112Z,-1.45
2022-12-17T19:22:27.039Z,-1.46
2022-12-17T19:24:55.213Z,-1.44
2022-12-17T19:27:23.222Z,-1.54
2022-12-17T19:29:51.281Z,-1.51
2022-12-17T19:32:19.248Z,-1.52
2022-12-17T19:34:47.318Z,-1.50
2022-12-17T19:37:15.433Z,-1.51
2022-12-17T19:39:43.449Z,-1.50
2022-12-17T19:42:25.705Z,-1.54
2022-12-17T19:44:56.977Z,-1.53
2022-12-17T19:47:25.005Z,-1.56
2022-12-17T19:49:53.175Z,-1.52
2022-12-17T19:52:21.612Z,-1.52
2022-12-17T19:54:50.132Z,-1.55
2022-12-17T19:57:18.198Z,-1.53
2022-12-17T19:59:46.244Z,-1.56
2022-12-17T20:02:14.472Z,-1.57
2022-12-17T20:04:42.558Z,-1.58
2022-12-17T20:07:10.662Z,-1.59
2022-12-17T20:09:38.696Z,-1.60
2022-12-17T20:12:06.918Z,-1.64
2022-12-17T20:14:36.738Z,-1.66
2022-12-17T20:17:06.403Z,-1.67
2022-12-17T20:19:36.203Z,-1.66
2022-12-17T20:22:05.709Z,-1.65
2022-12-17T20:24:33.703Z,-1.68
2022-12-17T20:27:02.177Z,-1.69
2022-12-17T20:29:30.451Z,-1.68
2022-12-17T20:32:02.515Z,-1.69
2022-12-17T20:34:30.754Z,-1.70
2022-12-17T20:36:58.716Z,-1.74
2022-12-17T20:39:28.383Z,-1.79
2022-12-17T20:41:57.388Z,-1.80
2022-12-17T20:44:28.576Z,-1.80
2022-12-17T20:46:56.659Z,-1.82
2022-12-17T20:49:24.563Z,-1.85
2022-12-17T20:51:52.471Z,-1.85
2022-12-17T20:54:21.763Z,-1.86
2022-12-17T20:56:49.812Z,-1.89
2022-12-17T20:59:18.856Z,-1.88
2022-12-17T21:01:51.507Z,-1.89
2022-12-17T21:04:22.575Z,-1.92
2022-12-17T21:06:50.602Z,-1.95
2022-12-17T21:09:21.274Z,-1.98
2022-12-17T21:11:49.301Z,-2.01
2022-12-17T21:14:18.377Z,-1.99
2022-12-17T21:16:46.620Z,-2.01
2022-12-17T21:19:21.939Z,-2.00
2022-12-17T21:21:50.518Z,-2.02
2022-12-17T21:24:19.583Z,-2.04
2022-12-17T21:26:48.380Z,-2.03
2022-12-17T21:29:16.911Z,-2.06
2022-12-17T21:31:50.255Z,-2.05
2022-12-17T21:34:22.879Z,-2.09
2022-12-17T21:36:51.510Z,-2.09
2022-12-17T21:39:19.893Z,-2.18
2022-12-17T21:42:07.941Z,-2.23
2022-12-17T21:44:36.842Z,-2.31
2022-12-17T21:47:04.971Z,-2.35
2022-12-17T21:49:33.522Z,-2.31
2022-12-17T21:52:08.040Z,-2.26
2022-12-17T21:54:39.002Z,-2.31
2022-12-17T21:57:07.230Z,-2.33
2022-12-17T21:59:35.238Z,-2.41
2022-12-17T22:02:03.399Z,-2.44
2022-12-17T22:04:31.966Z,-2.40
2022-12-17T22:07:02.726Z,-2.34
2022-12-17T22:10:19.396Z,-2.32
2022-12-17T22:12:50.645Z,-2.29
2022-12-17T22:15:18.866Z,-2.29
2022-12-17T22:17:47.623Z,-2.27
2022-12-17T22:20:17.592Z,-2.24
2022-12-17T22:22:47.282Z,-2.33
2022-12-17T22:25:15.869Z,-2.37
2022-12-17T22:27:44.234Z,-2.40
2022-12-17T22:30:33.568Z,-2.36
2022-12-17T22:33:01.800Z,-2.33
2022-12-17T22:38:52.845Z,-2.30
2022-12-17T22:43:14.483Z,-2.27
2022-12-17T22:44:35.376Z,-2.28
2022-12-17T22:44:42.469Z,-2.28
2022-12-17T22:47:12.836Z,-2.28
2022-12-17T22:49:41.210Z,-2.30
2022-12-17T22:52:11.917Z,-2.28
2022-12-17T22:54:39.937Z,-2.29
2022-12-17T22:57:30.681Z,-2.29
2022-12-17T22:59:56.090Z,-2.31
2022-12-17T23:02:24.600Z,-2.29
2022-12-17T23:04:52.530Z,-2.30
2022-12-17T23:07:20.311Z,-2.30
2022-12-17T23:09:48.392Z,-2.32
2022-12-17T23:12:34.769Z,-2.35
2022-12-17T23:15:02.554Z,-2.32
2022-12-17T23:17:30.414Z,-2.31
2022-12-17T23:19:58.281Z,-2.32
2022-12-17T23:22:26.266Z,-2.30
2022-12-17T23:24:54.098Z,-2.33
2022-12-17T23:27:21.980Z,-2.39
2022-12-17T23:29:49.848Z,-2.38
2022-12-17T23:32:17.860Z,-2.33
2022-12-17T23:34:45.726Z,-2.33
2022-12-17T23:37:13.660Z,-2.30
2022-12-17T23:39:41.554Z,-2.24
2022-12-17T23:42:09.357Z,-2.26
2022-12-17T23:44:37.260Z,-2.29
2022-12-17T23:47:05.270Z,-2.31
2022-12-17T23:49:33.100Z,-2.32
2022-12-17T23:52:00.878Z,-2.32
2022-12-17T23:54:28.957Z,-2.35
2022-12-17T23:56:56.875Z,-2.34
2022-12-17T23:59:24.668Z,-2.32
